Lutts, TN (38471)

23:53 CDT le 17 avril 2015 (GMT -0500)
APRSWXNET | | Change Station
CLOSE
Current Station
Stations météorologiques personnelles
Location: Waterloo, AL
Altitude: 734 ft
Stations météo à proximité

Alt. 734 ft 34.93 °N, 87.99 °W | Updated 29 minutes ago

Partiellement nuageux
Partiellement nuageux
61 ° F
Paraît 61 ° F
N
0
Vent Variable Vent de OSO
Gusts 0.0 mph

Aujourd'hui
Haut(e) -- | Bas -- ° F
--% Risque de précip.
Hier
Haut(e) -- | Bas -- ° F
Precip. -- pouce
6:17 AM 7:25 PM
Lune descendante, 0% visible
Pression 30.02 pouce
Visibilité 1.8 Miles terrestres
Nuages Ciel dégagé
Point de rosée 60 ° F
Humidité 96%
Précipitations pouce
Profondeur de la couche neigeuse Non disponible.
UV 0 sur 12
Pollen 9.90 sur 12
Qualité de l'air Non disponible.
Flu Activity Sporadic
SPECI KMSL 180447Z AUTO 00000KT 1 3/4SM BR CLR 14/14 A3002 RMK AO2

More Conditions Fewer Conditions

Pression 30.02 pouce
Visibilité 1.8 Miles terrestres
Nuages Ciel dégagé
Point de rosée 60 ° F
Humidité 96%
Précipitations pouce
Profondeur de la couche neigeuse Non disponible.
UV 0 sur 12
Pollen 9.90 sur 12
Qualité de l'air Non disponible.
Flu Activity Sporadic
SPECI KMSL 180447Z AUTO 00000KT 1 3/4SM BR CLR 14/14 A3002 RMK AO2

More Conditions Fewer Conditions

10-Day Weather Forecast

Almanac

Astronomie

Apr. 17, 2015 Lever Coucher
Temps réel
Crépuscule civil
Crépuscule nautique
Crépuscule astronomique
Lune
Durée de lumière visible
Longueur du jour
Tomorrow will be .
, % of the Moon is Illuminated

Extrêmes aujourd'hui

State Highs State Lows

Community

WunderPhotos

Upload Photos

1,814,342 Photos téléchargées !

WunderBlogs® & News

Nearby

Qualité de l'air

  Qualité de l'air Indice de la qualité de l'air Polluant
Not available.

Épaisseur de neige

Station Depth Altitude

Activité sismique

Ville Distance Mag. Time & Date
Minimum magnitude displayed is 2.5.

Températures des eaux côtières

Lieu Température

Stations

Stations météo à proximité

Emplacement de la station Température Refroidissement éolien Point de rosée Humidité Vent Precip. Alt. Mise à jour Type